createdAt,value
2018-01-04T00:00:30.968Z,0.00
2018-01-04T00:01:30.887Z,0.00
2018-01-04T00:02:30.807Z,0.00
2018-01-04T00:03:30.728Z,0.00
2018-01-04T00:04:30.648Z,0.00
2018-01-04T00:05:30.567Z,0.00
2018-01-04T00:06:30.489Z,0.00
2018-01-04T00:07:30.410Z,0.00
2018-01-04T00:08:30.329Z,0.00
2018-01-04T00:09:30.248Z,0.00
2018-01-04T00:10:30.167Z,0.00
2018-01-04T00:11:30.088Z,0.00
2018-01-04T00:12:30.011Z,0.00
2018-01-04T00:13:29.927Z,0.00
2018-01-04T00:14:29.847Z,0.00
2018-01-04T00:15:29.768Z,0.00
2018-01-04T00:16:29.689Z,0.00
2018-01-04T00:17:29.606Z,0.00
2018-01-04T00:18:29.528Z,0.00
2018-01-04T00:19:29.448Z,0.00
2018-01-04T00:20:29.369Z,0.00
2018-01-04T00:21:29.287Z,0.00
2018-01-04T00:22:29.207Z,0.00
2018-01-04T00:23:29.128Z,0.00
2018-01-04T00:24:29.047Z,0.00
2018-01-04T00:25:28.967Z,0.00
2018-01-04T00:26:28.887Z,0.00
2018-01-04T00:27:28.808Z,0.00
2018-01-04T00:28:28.727Z,0.00
2018-01-04T00:29:28.646Z,0.00
2018-01-04T00:30:28.567Z,0.00
2018-01-04T00:31:28.491Z,0.00
2018-01-04T00:32:28.408Z,0.00
2018-01-04T00:33:28.326Z,0.00
2018-01-04T00:34:28.246Z,0.00
2018-01-04T00:35:28.166Z,0.00
2018-01-04T00:36:28.087Z,0.00
2018-01-04T00:37:28.008Z,0.00
2018-01-04T00:38:27.930Z,0.00
2018-01-04T00:39:27.847Z,0.00
2018-01-04T00:40:27.767Z,0.00
2018-01-04T00:41:27.689Z,0.00
2018-01-04T00:42:27.608Z,0.00
2018-01-04T00:43:27.528Z,0.00
2018-01-04T00:44:27.448Z,0.00
2018-01-04T00:45:27.367Z,0.00
2018-01-04T00:46:27.287Z,0.00
2018-01-04T00:47:27.208Z,0.00
2018-01-04T00:48:27.128Z,0.00
2018-01-04T00:49:27.048Z,0.00
2018-01-04T00:50:26.968Z,0.00
2018-01-04T00:51:26.889Z,0.00
2018-01-04T00:52:26.809Z,0.00
2018-01-04T00:53:26.729Z,0.00
2018-01-04T00:54:26.649Z,0.00
2018-01-04T00:55:26.569Z,0.00
2018-01-04T00:56:26.490Z,0.00
2018-01-04T00:57:26.410Z,0.00
2018-01-04T00:58:26.330Z,0.00
2018-01-04T00:59:26.250Z,0.00
2018-01-04T01:00:26.171Z,0.00
2018-01-04T01:01:26.090Z,0.00
2018-01-04T01:02:26.011Z,0.00
2018-01-04T01:03:25.931Z,0.00
2018-01-04T01:04:25.852Z,0.00
2018-01-04T01:05:25.772Z,0.00
2018-01-04T01:06:25.691Z,0.00
2018-01-04T01:07:25.613Z,0.00
2018-01-04T01:08:25.533Z,0.00
2018-01-04T01:09:25.457Z,0.00
2018-01-04T01:10:25.373Z,0.00
2018-01-04T01:11:25.292Z,0.00
2018-01-04T01:12:25.214Z,0.00
2018-01-04T01:13:25.134Z,0.00
2018-01-04T01:14:25.055Z,0.00
2018-01-04T01:15:24.975Z,0.00
2018-01-04T01:16:24.894Z,0.00
2018-01-04T01:17:24.814Z,0.00
2018-01-04T01:18:24.736Z,0.00
2018-01-04T01:19:24.656Z,0.00
2018-01-04T01:20:24.577Z,0.00
2018-01-04T01:21:24.499Z,0.00
2018-01-04T01:22:24.417Z,0.00
2018-01-04T01:23:24.337Z,0.00
2018-01-04T01:24:24.257Z,0.00
2018-01-04T01:25:24.176Z,0.00
2018-01-04T01:26:24.096Z,0.00
2018-01-04T01:27:24.017Z,0.00
2018-01-04T01:28:23.938Z,0.00
2018-01-04T01:29:23.857Z,0.00
2018-01-04T01:30:23.778Z,0.00
2018-01-04T01:31:23.698Z,0.00
2018-01-04T01:32:23.619Z,0.00
2018-01-04T01:33:23.537Z,0.00
2018-01-04T01:34:23.458Z,0.00
2018-01-04T01:35:23.378Z,0.00
2018-01-04T01:36:23.299Z,0.00
2018-01-04T01:37:23.218Z,0.00
2018-01-04T01:38:23.138Z,0.00
2018-01-04T01:39:23.060Z,0.00
2018-01-04T01:40:22.978Z,0.00
2018-01-04T01:41:22.899Z,0.00
2018-01-04T01:42:22.818Z,0.00
2018-01-04T01:43:22.739Z,0.00
2018-01-04T01:44:22.659Z,0.00
2018-01-04T01:45:22.579Z,0.00
2018-01-04T01:46:22.498Z,0.00
2018-01-04T01:47:22.419Z,0.00
2018-01-04T01:48:22.339Z,0.00
2018-01-04T01:49:22.260Z,0.00
2018-01-04T01:50:22.178Z,0.00
2018-01-04T01:51:22.098Z,0.00
2018-01-04T01:52:22.019Z,0.00
2018-01-04T01:53:21.938Z,0.00
2018-01-04T01:54:21.858Z,0.00
2018-01-04T01:55:21.779Z,0.00
2018-01-04T01:56:21.699Z,0.00
2018-01-04T01:57:21.619Z,0.00
2018-01-04T01:58:21.540Z,0.00
2018-01-04T01:59:21.459Z,0.00
2018-01-04T02:00:21.380Z,0.00
2018-01-04T02:01:21.298Z,0.00
2018-01-04T02:02:21.219Z,0.00
2018-01-04T02:03:21.140Z,0.00
2018-01-04T02:04:21.061Z,0.00
2018-01-04T02:05:21.015Z,0.00
2018-01-04T02:06:20.899Z,0.00
2018-01-04T02:07:20.818Z,0.00
2018-01-04T02:08:20.738Z,0.00
2018-01-04T02:09:20.659Z,0.00
2018-01-04T02:10:20.579Z,0.00
2018-01-04T02:11:20.498Z,0.00
2018-01-04T02:12:20.419Z,0.00
2018-01-04T02:13:20.339Z,0.00
2018-01-04T02:14:20.258Z,0.00
2018-01-04T02:15:20.179Z,0.00
2018-01-04T02:16:20.101Z,0.00
2018-01-04T02:17:20.019Z,0.00
2018-01-04T02:18:19.939Z,0.00
2018-01-04T02:19:19.861Z,0.00
2018-01-04T02:20:19.779Z,0.00
2018-01-04T02:21:19.699Z,0.00
2018-01-04T02:22:19.620Z,0.00
2018-01-04T02:23:19.541Z,0.00
2018-01-04T02:24:19.463Z,0.00
2018-01-04T02:25:19.382Z,0.00
2018-01-04T02:26:19.302Z,0.00
2018-01-04T02:27:19.222Z,0.00
2018-01-04T02:28:19.142Z,0.00
2018-01-04T02:29:19.060Z,0.00
2018-01-04T02:30:18.981Z,0.00
2018-01-04T02:31:18.902Z,0.00
2018-01-04T02:32:18.823Z,0.00
2018-01-04T02:33:18.743Z,0.00
2018-01-04T02:34:18.662Z,0.00
2018-01-04T02:35:18.584Z,0.00
2018-01-04T02:36:18.506Z,0.00
2018-01-04T02:37:18.424Z,0.00
2018-01-04T02:38:18.344Z,0.00
2018-01-04T02:39:18.265Z,0.00
2018-01-04T02:40:18.185Z,0.00
2018-01-04T02:41:18.103Z,0.00
2018-01-04T02:42:18.025Z,0.00
2018-01-04T02:43:17.944Z,0.00
2018-01-04T02:44:17.865Z,0.00
2018-01-04T02:45:17.784Z,0.00
2018-01-04T02:46:17.711Z,0.00
2018-01-04T02:47:17.626Z,0.00
2018-01-04T02:48:17.546Z,0.00
2018-01-04T02:49:17.464Z,0.00
2018-01-04T02:50:17.384Z,0.00
2018-01-04T02:51:17.304Z,0.00
2018-01-04T02:52:17.224Z,0.00
2018-01-04T02:53:17.144Z,0.00
2018-01-04T02:54:17.063Z,0.00
2018-01-04T02:55:16.983Z,0.00
2018-01-04T02:56:16.905Z,0.00
2018-01-04T02:57:16.824Z,0.00
2018-01-04T02:58:16.743Z,0.00
2018-01-04T02:59:16.663Z,0.00
2018-01-04T03:00:16.583Z,0.00
2018-01-04T03:01:16.504Z,0.00
2018-01-04T03:02:16.422Z,0.00
2018-01-04T03:03:16.342Z,0.00
2018-01-04T03:04:16.264Z,0.00
2018-01-04T03:05:16.182Z,0.00
2018-01-04T03:06:16.104Z,0.00
2018-01-04T03:07:16.025Z,0.00
2018-01-04T03:08:15.944Z,0.00
2018-01-04T03:09:15.863Z,0.00
2018-01-04T03:10:15.783Z,0.00
2018-01-04T03:11:15.702Z,0.00
2018-01-04T03:12:15.623Z,0.00
2018-01-04T03:13:15.543Z,0.00
2018-01-04T03:14:15.462Z,0.00
2018-01-04T03:15:15.384Z,0.00
2018-01-04T03:16:15.303Z,0.00
2018-01-04T03:17:15.224Z,0.00
2018-01-04T03:18:15.143Z,0.00
2018-01-04T03:19:15.067Z,0.00
2018-01-04T03:20:14.984Z,0.00
2018-01-04T03:21:14.903Z,0.00
2018-01-04T03:22:14.823Z,0.00
2018-01-04T03:23:14.748Z,0.00
2018-01-04T03:24:14.666Z,0.00
2018-01-04T03:25:14.583Z,0.00
2018-01-04T03:26:14.502Z,0.00
2018-01-04T03:27:14.426Z,0.00
2018-01-04T03:28:14.350Z,0.00
2018-01-04T03:29:14.262Z,0.00
2018-01-04T03:30:14.184Z,0.00
2018-01-04T03:31:14.102Z,0.00
2018-01-04T03:32:14.023Z,0.00
2018-01-04T03:33:13.941Z,0.00
2018-01-04T03:34:13.862Z,0.00
2018-01-04T03:35:13.782Z,0.00
2018-01-04T03:36:13.709Z,0.00
2018-01-04T03:37:13.621Z,0.00
2018-01-04T03:38:13.541Z,0.00
2018-01-04T03:39:13.461Z,0.00
2018-01-04T03:40:13.382Z,0.00
2018-01-04T03:41:13.300Z,0.00
2018-01-04T03:42:13.221Z,0.00
2018-01-04T03:43:13.142Z,0.00
2018-01-04T03:44:13.066Z,0.00
2018-01-04T03:45:12.980Z,0.00
2018-01-04T03:46:12.901Z,0.00
2018-01-04T03:47:12.820Z,0.00
2018-01-04T03:48:12.741Z,0.00
2018-01-04T03:49:12.660Z,0.00
2018-01-04T03:50:12.582Z,0.00
2018-01-04T03:51:12.502Z,0.00
2018-01-04T03:52:12.426Z,0.00
2018-01-04T03:53:12.340Z,0.00
2018-01-04T03:54:12.260Z,0.00
2018-01-04T03:55:12.180Z,0.00
2018-01-04T03:56:12.100Z,0.00
2018-01-04T03:57:12.020Z,0.00
2018-01-04T03:58:11.939Z,0.00
2018-01-04T03:59:11.858Z,0.00
2018-01-04T04:00:11.779Z,0.00
2018-01-04T04:01:11.699Z,0.00
2018-01-04T04:02:11.619Z,0.00
2018-01-04T04:03:11.539Z,0.00
2018-01-04T04:04:11.460Z,0.00
2018-01-04T04:05:11.380Z,0.00
2018-01-04T04:06:11.299Z,0.00
2018-01-04T04:07:11.219Z,0.00
2018-01-04T04:08:11.138Z,0.00
2018-01-04T04:09:11.059Z,0.00
2018-01-04T04:10:10.979Z,0.00
2018-01-04T04:11:10.899Z,0.00
2018-01-04T04:12:10.820Z,0.00
2018-01-04T04:13:10.739Z,0.00
2018-01-04T04:14:10.660Z,0.00
2018-01-04T04:15:10.580Z,0.00
2018-01-04T04:16:10.500Z,0.00
2018-01-04T04:17:10.420Z,0.00
2018-01-04T04:18:10.340Z,0.00
2018-01-04T04:19:10.260Z,0.00
2018-01-04T04:20:10.182Z,0.00
2018-01-04T04:21:10.100Z,0.00
2018-01-04T04:22:10.021Z,0.00
2018-01-04T04:23:09.941Z,0.00
2018-01-04T04:24:09.864Z,0.00
2018-01-04T04:25:09.783Z,0.00
2018-01-04T04:26:09.702Z,0.00
2018-01-04T04:27:09.622Z,0.00
2018-01-04T04:28:09.543Z,0.00
2018-01-04T04:29:09.462Z,0.00
2018-01-04T04:30:09.382Z,0.00
2018-01-04T04:31:09.303Z,0.00
2018-01-04T04:32:09.224Z,0.00
2018-01-04T04:33:09.144Z,0.00
2018-01-04T04:34:09.064Z,0.00
2018-01-04T04:35:08.984Z,0.00
2018-01-04T04:36:08.905Z,0.00
2018-01-04T04:37:08.825Z,0.00
2018-01-04T04:38:08.745Z,0.00
2018-01-04T04:39:08.666Z,0.00
2018-01-04T04:40:08.586Z,0.00
2018-01-04T04:41:08.507Z,0.00
2018-01-04T04:42:08.427Z,0.00
2018-01-04T04:43:08.347Z,0.00
2018-01-04T04:44:08.267Z,0.00
2018-01-04T04:45:08.187Z,0.00
2018-01-04T04:46:08.109Z,0.00
2018-01-04T04:47:08.033Z,0.00
2018-01-04T04:48:07.949Z,0.00
2018-01-04T04:49:07.869Z,0.00
2018-01-04T04:50:07.790Z,0.00
2018-01-04T04:51:07.712Z,0.00
2018-01-04T04:52:07.632Z,0.00
2018-01-04T04:53:07.551Z,0.00
2018-01-04T04:54:07.472Z,0.00
2018-01-04T04:55:07.392Z,0.00
2018-01-04T04:56:07.316Z,0.00
2018-01-04T04:57:07.233Z,0.00
2018-01-04T04:58:07.160Z,0.00
2018-01-04T04:59:07.074Z,0.00
2018-01-04T05:00:06.996Z,0.00
2018-01-04T05:01:06.915Z,0.00
2018-01-04T05:02:06.841Z,0.00
2018-01-04T05:03:06.755Z,0.00
2018-01-04T05:04:06.676Z,0.00
2018-01-04T05:05:06.596Z,0.00
2018-01-04T05:06:06.516Z,0.00
2018-01-04T05:07:06.438Z,0.00
2018-01-04T05:08:06.358Z,0.00
2018-01-04T05:09:06.277Z,0.00
2018-01-04T05:10:06.198Z,0.00
2018-01-04T05:11:06.118Z,0.00
2018-01-04T05:12:06.039Z,0.00
2018-01-04T05:13:05.959Z,0.00
2018-01-04T05:14:05.880Z,0.00
2018-01-04T05:15:05.800Z,0.00
2018-01-04T05:16:05.720Z,0.00
2018-01-04T05:17:05.640Z,0.00
2018-01-04T05:18:05.561Z,0.00
2018-01-04T05:19:05.481Z,0.00
2018-01-04T05:20:05.402Z,0.00
2018-01-04T05:21:05.323Z,0.00
2018-01-04T05:22:05.242Z,0.00
2018-01-04T05:23:05.163Z,0.00
2018-01-04T05:24:05.083Z,0.00
2018-01-04T05:25:05.007Z,0.00
2018-01-04T05:26:04.923Z,0.00
2018-01-04T05:27:04.844Z,0.00
2018-01-04T05:28:04.764Z,0.00
2018-01-04T05:29:04.684Z,0.00
2018-01-04T05:30:04.606Z,0.00
2018-01-04T05:31:04.526Z,0.00
2018-01-04T05:32:04.449Z,0.00
2018-01-04T05:33:04.366Z,0.00
2018-01-04T05:34:04.287Z,0.00
2018-01-04T05:35:04.211Z,0.00
2018-01-04T05:36:04.129Z,0.00
2018-01-04T05:37:04.048Z,0.00
2018-01-04T05:38:03.970Z,0.00
2018-01-04T05:39:03.890Z,0.00
2018-01-04T05:40:03.811Z,0.00
2018-01-04T05:41:03.730Z,0.00
2018-01-04T05:42:03.651Z,0.00
2018-01-04T05:43:03.572Z,0.00
2018-01-04T05:44:03.492Z,0.00
2018-01-04T05:45:03.411Z,0.00
2018-01-04T05:46:03.337Z,0.00
2018-01-04T05:47:03.257Z,0.00
2018-01-04T05:48:03.174Z,0.00
2018-01-04T05:49:03.093Z,0.00
2018-01-04T05:50:03.014Z,0.00
2018-01-04T05:51:02.935Z,0.00
2018-01-04T05:52:02.856Z,0.00
2018-01-04T05:53:02.775Z,0.00
2018-01-04T05:54:02.696Z,0.00
2018-01-04T05:55:02.616Z,0.00
2018-01-04T05:56:02.537Z,0.00
2018-01-04T05:57:02.456Z,0.00
2018-01-04T05:58:02.378Z,0.00
2018-01-04T05:59:02.298Z,0.00
2018-01-04T06:00:02.218Z,0.00
2018-01-04T06:01:02.139Z,0.00
2018-01-04T06:02:02.058Z,0.00
2018-01-04T06:03:01.980Z,0.00
2018-01-04T06:04:01.899Z,0.00
2018-01-04T06:05:01.819Z,0.00
2018-01-04T06:06:01.740Z,0.00
2018-01-04T06:07:01.660Z,0.00
2018-01-04T06:08:01.581Z,0.00
2018-01-04T06:09:01.513Z,0.00
2018-01-04T06:10:01.420Z,0.00
2018-01-04T06:11:01.340Z,0.00
2018-01-04T06:12:01.262Z,0.00
2018-01-04T06:13:01.181Z,0.00
2018-01-04T06:14:01.102Z,0.00
2018-01-04T06:15:01.022Z,0.00
2018-01-04T06:16:00.943Z,0.00
2018-01-04T06:17:00.862Z,0.00
2018-01-04T06:18:00.783Z,0.00
2018-01-04T06:19:00.703Z,0.00
2018-01-04T06:20:00.623Z,0.00
2018-01-04T06:21:00.543Z,0.00
2018-01-04T06:22:00.462Z,0.00
2018-01-04T06:23:00.384Z,0.00
2018-01-04T06:24:00.306Z,0.00
2018-01-04T06:25:00.225Z,0.00
2018-01-04T06:26:00.145Z,0.00
2018-01-04T06:27:00.066Z,0.00
2018-01-04T06:27:59.985Z,0.00
2018-01-04T06:28:59.906Z,0.00
2018-01-04T06:29:59.826Z,0.00
2018-01-04T06:30:59.747Z,0.00
2018-01-04T06:31:59.668Z,0.00
2018-01-04T06:32:59.588Z,0.00
2018-01-04T06:33:59.509Z,0.00
2018-01-04T06:34:59.428Z,0.00
2018-01-04T06:35:59.350Z,0.00
2018-01-04T06:36:59.269Z,0.00
2018-01-04T06:37:59.189Z,0.00
2018-01-04T06:38:59.110Z,0.00
2018-01-04T06:39:59.030Z,0.00
2018-01-04T06:40:58.950Z,0.00
2018-01-04T06:41:58.870Z,0.00
2018-01-04T06:42:58.791Z,0.00
2018-01-04T06:43:58.712Z,0.00
2018-01-04T06:44:58.631Z,0.00
2018-01-04T06:45:58.551Z,0.00
2018-01-04T06:46:58.472Z,0.00
2018-01-04T06:47:58.392Z,0.00
2018-01-04T06:48:58.311Z,0.00
2018-01-04T06:49:58.232Z,0.00
2018-01-04T06:50:58.153Z,0.00
2018-01-04T06:51:58.073Z,4.00
2018-01-04T06:52:57.992Z,4.00
2018-01-04T06:53:57.912Z,4.00
2018-01-04T06:54:57.833Z,0.00
2018-01-04T06:55:57.752Z,4.00
2018-01-04T06:56:57.674Z,4.00
2018-01-04T06:57:57.592Z,4.00
2018-01-04T06:58:57.511Z,4.00
2018-01-04T06:59:57.433Z,8.00
2018-01-04T07:00:57.353Z,8.00
2018-01-04T07:01:57.276Z,8.00
2018-01-04T07:02:57.194Z,8.00
2018-01-04T07:03:57.114Z,8.00
2018-01-04T07:04:57.034Z,12.00
2018-01-04T07:05:56.954Z,16.00
2018-01-04T07:06:56.875Z,20.00
2018-01-04T07:07:56.839Z,20.00
2018-01-04T07:08:56.715Z,24.00
2018-01-04T07:09:56.634Z,28.00
2018-01-04T07:10:56.555Z,32.00
2018-01-04T07:11:56.476Z,32.00
2018-01-04T07:12:56.396Z,36.00
2018-01-04T07:13:56.315Z,44.00
2018-01-04T07:14:56.237Z,48.00
2018-01-04T07:15:56.156Z,52.00
2018-01-04T07:16:56.075Z,56.00
2018-01-04T07:17:55.996Z,64.00
2018-01-04T07:18:55.916Z,72.00
2018-01-04T07:19:55.836Z,76.00
2018-01-04T07:20:55.758Z,88.00
2018-01-04T07:21:55.677Z,96.00
2018-01-04T07:22:55.597Z,104.00
2018-01-04T07:23:55.518Z,112.00
2018-01-04T07:24:55.441Z,124.00
2018-01-04T07:25:55.358Z,136.00
2018-01-04T07:26:55.278Z,152.00
2018-01-04T07:27:55.199Z,168.00
2018-01-04T07:28:55.125Z,180.00
2018-01-04T07:29:55.040Z,192.00
2018-01-04T07:30:54.960Z,200.00
2018-01-04T07:31:54.880Z,212.00
2018-01-04T07:32:54.800Z,224.00
2018-01-04T07:33:54.719Z,224.00
2018-01-04T07:34:54.640Z,240.00
2018-01-04T07:35:54.561Z,236.00
2018-01-04T07:36:54.480Z,236.00
2018-01-04T07:37:54.401Z,232.00
2018-01-04T07:38:54.321Z,224.00
2018-01-04T07:39:54.242Z,224.00
2018-01-04T07:40:54.162Z,212.00
2018-01-04T07:41:54.082Z,204.00
2018-01-04T07:42:54.002Z,204.00
2018-01-04T07:43:53.925Z,196.00
2018-01-04T07:44:53.843Z,192.00
2018-01-04T07:45:53.763Z,196.00
2018-01-04T07:46:53.683Z,208.00
2018-01-04T07:47:53.607Z,220.00
2018-01-04T07:48:53.522Z,204.00
2018-01-04T07:49:53.443Z,200.00
2018-01-04T07:50:53.364Z,188.00
2018-01-04T07:51:53.284Z,224.00
2018-01-04T07:52:53.203Z,236.00
2018-01-04T07:53:53.124Z,232.00
2018-01-04T07:54:53.044Z,228.00
2018-01-04T07:55:52.966Z,264.00
2018-01-04T07:56:52.884Z,296.00
2018-01-04T07:57:52.805Z,328.00
2018-01-04T07:58:52.726Z,368.00
2018-01-04T07:59:52.646Z,396.00
2018-01-04T08:00:52.581Z,412.00
2018-01-04T08:01:52.486Z,428.00
2018-01-04T08:02:52.406Z,456.00
2018-01-04T08:03:52.327Z,464.00
2018-01-04T08:04:52.246Z,480.00
2018-01-04T08:05:52.168Z,356.00
2018-01-04T08:06:52.089Z,372.00
2018-01-04T08:07:52.009Z,380.00
2018-01-04T08:08:51.928Z,308.00
2018-01-04T08:09:51.857Z,340.00
2018-01-04T08:10:51.770Z,316.00
2018-01-04T08:11:51.693Z,264.00
2018-01-04T08:12:51.610Z,324.00
2018-01-04T08:13:51.532Z,380.00
2018-01-04T08:14:51.452Z,556.00
2018-01-04T08:15:51.373Z,588.00
2018-01-04T08:16:51.292Z,544.00
2018-01-04T08:17:51.214Z,504.00
2018-01-04T08:18:51.135Z,564.00
2018-01-04T08:19:51.056Z,660.00
2018-01-04T08:20:50.976Z,740.00
2018-01-04T08:21:50.897Z,776.00
2018-01-04T08:22:50.817Z,720.00
2018-01-04T08:23:50.739Z,692.00
2018-01-04T08:24:50.659Z,664.00
2018-01-04T08:25:50.580Z,608.00
2018-01-04T08:26:50.500Z,600.00
2018-01-04T08:27:50.421Z,592.00
2018-01-04T08:28:50.342Z,540.00
2018-01-04T08:29:50.265Z,492.00
2018-01-04T08:30:50.185Z,464.00
2018-01-04T08:31:50.105Z,488.00
2018-01-04T08:32:50.028Z,488.00
2018-01-04T08:33:49.946Z,624.00
2018-01-04T08:34:49.867Z,696.00
2018-01-04T08:35:49.789Z,680.00
2018-01-04T08:36:49.745Z,704.00
2018-01-04T08:37:49.630Z,624.00
2018-01-04T08:38:49.551Z,684.00
2018-01-04T08:39:49.472Z,672.00
2018-01-04T08:40:49.392Z,632.00
2018-01-04T08:41:49.313Z,588.00
2018-01-04T08:42:49.234Z,708.00
2018-01-04T08:43:49.166Z,760.00
2018-01-04T08:44:49.075Z,788.00
2018-01-04T08:45:48.996Z,740.00
2018-01-04T08:46:48.918Z,700.00
2018-01-04T08:47:48.842Z,676.00
2018-01-04T08:48:48.759Z,628.00
2018-01-04T08:49:48.681Z,592.00
2018-01-04T08:50:48.600Z,580.00
2018-01-04T08:51:48.522Z,732.00
2018-01-04T08:52:48.442Z,952.00
2018-01-04T08:53:48.363Z,848.00
2018-01-04T08:54:48.284Z,736.00
2018-01-04T08:55:48.205Z,840.00
2018-01-04T08:56:48.124Z,812.00
2018-01-04T08:57:48.045Z,844.00
2018-01-04T08:58:47.966Z,908.00
2018-01-04T08:59:47.888Z,784.00
2018-01-04T09:00:47.814Z,644.00
2018-01-04T09:01:47.728Z,644.00
2018-01-04T09:02:47.648Z,708.00
2018-01-04T09:03:47.571Z,772.00
2018-01-04T09:04:47.491Z,856.00
2018-01-04T09:05:47.412Z,924.00
2018-01-04T09:06:47.331Z,944.00
2018-01-04T09:07:47.253Z,1036.00
2018-01-04T09:08:47.172Z,1056.00
2018-01-04T09:09:47.093Z,944.00
2018-01-04T09:10:47.015Z,1104.00
2018-01-04T09:11:46.935Z,1092.00
2018-01-04T09:12:46.856Z,1052.00
2018-01-04T09:13:46.776Z,1024.00
2018-01-04T09:14:46.697Z,1016.00
2018-01-04T09:15:46.618Z,1040.00
2018-01-04T09:16:46.538Z,832.00
2018-01-04T09:17:46.459Z,772.00
2018-01-04T09:18:46.380Z,780.00
2018-01-04T09:19:46.300Z,720.00
2018-01-04T09:20:46.221Z,676.00
2018-01-04T09:21:46.141Z,832.00
2018-01-04T09:22:46.061Z,852.00
2018-01-04T09:23:45.983Z,864.00
2018-01-04T09:24:45.903Z,772.00
2018-01-04T09:25:45.826Z,832.00
2018-01-04T09:26:45.745Z,880.00
2018-01-04T09:27:45.667Z,980.00
2018-01-04T09:28:45.587Z,1200.00
2018-01-04T09:29:45.507Z,1164.00
2018-01-04T09:30:45.428Z,964.00
2018-01-04T09:31:45.350Z,1036.00
2018-01-04T09:32:45.269Z,1068.00
2018-01-04T09:33:45.190Z,1040.00
2018-01-04T09:34:45.112Z,1096.00
2018-01-04T09:35:45.032Z,940.00
2018-01-04T09:36:44.951Z,892.00
2018-01-04T09:37:44.873Z,1032.00
2018-01-04T09:38:44.794Z,1072.00
2018-01-04T09:39:44.716Z,1092.00
2018-01-04T09:40:44.634Z,1020.00
2018-01-04T09:41:44.556Z,968.00
2018-01-04T09:42:44.477Z,1000.00
2018-01-04T09:43:44.398Z,1144.00
2018-01-04T09:44:44.317Z,1220.00
2018-01-04T09:45:44.240Z,1392.00
2018-01-04T09:46:44.160Z,1612.00
2018-01-04T09:47:44.081Z,1580.00
2018-01-04T09:48:44.002Z,1572.00
2018-01-04T09:49:43.922Z,1544.00
2018-01-04T09:50:43.843Z,1416.00
2018-01-04T09:51:43.764Z,1444.00
2018-01-04T09:52:43.684Z,1700.00
2018-01-04T09:53:43.606Z,1748.00
2018-01-04T09:54:43.527Z,1656.00
2018-01-04T09:55:43.448Z,1364.00
2018-01-04T09:56:43.373Z,1496.00
2018-01-04T09:57:43.289Z,1620.00
2018-01-04T09:58:43.210Z,1684.00
2018-01-04T09:59:43.134Z,1800.00
2018-01-04T10:00:43.052Z,1724.00
2018-01-04T10:01:42.972Z,1688.00
2018-01-04T10:02:42.893Z,1652.00
2018-01-04T10:03:42.815Z,1544.00
2018-01-04T10:04:42.738Z,1372.00
2018-01-04T10:05:42.656Z,1388.00
2018-01-04T10:06:42.577Z,1344.00
2018-01-04T10:07:42.499Z,1240.00
2018-01-04T10:08:42.417Z,1172.00
2018-01-04T10:09:42.339Z,1180.00
2018-01-04T10:10:42.261Z,1228.00
2018-01-04T10:11:42.181Z,1128.00
2018-01-04T10:12:42.106Z,1092.00
2018-01-04T10:13:42.022Z,1004.00
2018-01-04T10:14:41.945Z,912.00
2018-01-04T10:15:41.865Z,968.00
2018-01-04T10:16:41.785Z,920.00
2018-01-04T10:17:41.733Z,856.00
2018-01-04T10:18:41.627Z,920.00
2018-01-04T10:19:41.548Z,1044.00
2018-01-04T10:20:41.470Z,1188.00
2018-01-04T10:21:41.392Z,1228.00
2018-01-04T10:22:41.311Z,1312.00
2018-01-04T10:23:41.233Z,1228.00
2018-01-04T10:24:41.153Z,1248.00
2018-01-04T10:25:41.074Z,1232.00
2018-01-04T10:26:40.996Z,1304.00
2018-01-04T10:27:40.918Z,1300.00
2018-01-04T10:28:40.839Z,1364.00
2018-01-04T10:29:40.759Z,1432.00
2018-01-04T10:30:40.680Z,1448.00
2018-01-04T10:31:40.604Z,1416.00
2018-01-04T10:32:40.527Z,1460.00
2018-01-04T10:33:40.445Z,1528.00
2018-01-04T10:34:40.368Z,1576.00
2018-01-04T10:35:40.288Z,1656.00
2018-01-04T10:36:40.209Z,1716.00
2018-01-04T10:37:40.130Z,1796.00
2018-01-04T10:38:40.053Z,1876.00
2018-01-04T10:39:39.974Z,1900.00
2018-01-04T10:40:39.894Z,1884.00
2018-01-04T10:41:39.816Z,1892.00
2018-01-04T10:42:39.738Z,1904.00
2018-01-04T10:43:39.660Z,1884.00
2018-01-04T10:44:39.581Z,1924.00
2018-01-04T10:45:39.502Z,1928.00
2018-01-04T10:46:39.429Z,1936.00
2018-01-04T10:47:39.347Z,1908.00
2018-01-04T10:48:39.266Z,1904.00
2018-01-04T10:49:39.192Z,1856.00
2018-01-04T10:50:39.110Z,1828.00
2018-01-04T10:51:39.031Z,1860.00
2018-01-04T10:52:38.952Z,1896.00
2018-01-04T10:53:38.874Z,1936.00
2018-01-04T10:54:38.796Z,1944.00
2018-01-04T10:55:38.717Z,1932.00
2018-01-04T10:56:38.637Z,1912.00
2018-01-04T10:57:38.560Z,1776.00
2018-01-04T10:58:38.483Z,1820.00
2018-01-04T10:59:38.405Z,1808.00
2018-01-04T11:00:38.326Z,1856.00
2018-01-04T11:01:38.247Z,1780.00
2018-01-04T11:02:38.168Z,1680.00
2018-01-04T11:03:38.091Z,1732.00
2018-01-04T11:04:38.013Z,1576.00
2018-01-04T11:05:37.935Z,1600.00
2018-01-04T11:06:37.857Z,1524.00
2018-01-04T11:07:37.779Z,1696.00
2018-01-04T11:08:37.701Z,1932.00
2018-01-04T11:09:37.623Z,1768.00
2018-01-04T11:10:37.545Z,1688.00
2018-01-04T11:11:37.468Z,1752.00
2018-01-04T11:12:37.389Z,1768.00
2018-01-04T11:13:37.313Z,1800.00
2018-01-04T11:14:37.234Z,1692.00
2018-01-04T11:15:37.156Z,1604.00
2018-01-04T11:16:37.078Z,1632.00
2018-01-04T11:17:37.001Z,1552.00
2018-01-04T11:18:36.923Z,1740.00
2018-01-04T11:19:36.846Z,1640.00
2018-01-04T11:20:36.766Z,1460.00
2018-01-04T11:21:36.690Z,1476.00
2018-01-04T11:22:36.611Z,1548.00
2018-01-04T11:23:36.534Z,1508.00
2018-01-04T11:24:36.455Z,1592.00
2018-01-04T11:25:36.377Z,1672.00
2018-01-04T11:26:36.301Z,1572.00
2018-01-04T11:27:36.222Z,1576.00
2018-01-04T11:28:36.144Z,1596.00
2018-01-04T11:29:36.065Z,1588.00
2018-01-04T11:30:35.988Z,1772.00
2018-01-04T11:31:35.910Z,1756.00
2018-01-04T11:32:35.832Z,1560.00
2018-01-04T11:33:35.754Z,1540.00
2018-01-04T11:34:35.676Z,1496.00
2018-01-04T11:35:35.600Z,1516.00
2018-01-04T11:36:35.520Z,1628.00
2018-01-04T11:37:35.443Z,1672.00
2018-01-04T11:38:35.368Z,1668.00
2018-01-04T11:39:35.287Z,1864.00
2018-01-04T11:40:35.210Z,1964.00
2018-01-04T11:41:35.130Z,1932.00
2018-01-04T11:42:35.053Z,1972.00
2018-01-04T11:43:34.975Z,1964.00
2018-01-04T11:44:34.896Z,2008.00
2018-01-04T11:45:34.819Z,2084.00
2018-01-04T11:46:34.742Z,1940.00
2018-01-04T11:47:34.663Z,1856.00
2018-01-04T11:48:34.584Z,1708.00
2018-01-04T11:49:34.506Z,1860.00
2018-01-04T11:50:34.429Z,1884.00
2018-01-04T11:51:34.351Z,1848.00
2018-01-04T11:52:34.273Z,2024.00
2018-01-04T11:53:34.196Z,1732.00
2018-01-04T11:54:34.117Z,1928.00
2018-01-04T11:55:34.040Z,1704.00
2018-01-04T11:56:33.960Z,1924.00
2018-01-04T11:57:33.884Z,2000.00
2018-01-04T11:58:33.806Z,1804.00
2018-01-04T11:59:33.729Z,1748.00
2018-01-04T12:00:33.650Z,1832.00
2018-01-04T12:01:33.573Z,1848.00
2018-01-04T12:02:33.495Z,1872.00
2018-01-04T12:03:33.418Z,1748.00
2018-01-04T12:04:33.339Z,1760.00
2018-01-04T12:05:33.263Z,1564.00
2018-01-04T12:06:33.185Z,1640.00
2018-01-04T12:07:33.110Z,1564.00
2018-01-04T12:08:33.029Z,1456.00
2018-01-04T12:09:32.952Z,1488.00
2018-01-04T12:10:32.875Z,1544.00
2018-01-04T12:11:32.797Z,1496.00
2018-01-04T12:12:32.724Z,1224.00
2018-01-04T12:13:32.643Z,1228.00
2018-01-04T12:14:32.565Z,1144.00
2018-01-04T12:15:32.487Z,1220.00
2018-01-04T12:16:32.410Z,1164.00
2018-01-04T12:17:32.333Z,1264.00
2018-01-04T12:18:32.255Z,1328.00
2018-01-04T12:19:32.178Z,1500.00
2018-01-04T12:20:32.101Z,1372.00
2018-01-04T12:21:32.023Z,1344.00
2018-01-04T12:22:31.946Z,1080.00
2018-01-04T12:23:31.869Z,1036.00
2018-01-04T12:24:31.791Z,828.00
2018-01-04T12:25:31.715Z,836.00
2018-01-04T12:26:31.637Z,796.00
2018-01-04T12:27:31.560Z,692.00
2018-01-04T12:28:31.481Z,732.00
2018-01-04T12:29:31.404Z,716.00
2018-01-04T12:30:31.328Z,820.00
2018-01-04T12:31:31.250Z,960.00
2018-01-04T12:32:31.172Z,996.00
2018-01-04T12:33:31.100Z,1140.00
2018-01-04T12:34:31.019Z,1080.00
2018-01-04T12:35:30.941Z,872.00
2018-01-04T12:36:30.862Z,916.00
2018-01-04T12:37:30.785Z,1012.00
2018-01-04T12:38:30.708Z,1088.00
2018-01-04T12:39:30.631Z,1016.00
2018-01-04T12:40:30.554Z,976.00
2018-01-04T12:41:30.476Z,1052.00
2018-01-04T12:42:30.398Z,1116.00
2018-01-04T12:43:30.322Z,1068.00
2018-01-04T12:44:30.242Z,940.00
2018-01-04T12:45:30.168Z,732.00
2018-01-04T12:46:30.088Z,820.00
2018-01-04T12:47:30.011Z,680.00
2018-01-04T12:48:29.932Z,812.00